createdAt,value
2018-05-04T00:00:04.275Z,94.80
2018-05-04T00:02:33.130Z,94.90
2018-05-04T00:05:01.970Z,95.10
2018-05-04T00:07:30.810Z,95.10
2018-05-04T00:09:59.653Z,95.30
2018-05-04T00:12:28.494Z,95.70
2018-05-04T00:14:57.323Z,95.50
2018-05-04T00:17:26.256Z,95.70
2018-05-04T00:19:55.849Z,95.80
2018-05-04T00:22:24.680Z,95.70
2018-05-04T00:24:54.301Z,95.90
2018-05-04T00:27:23.907Z,95.70
2018-05-04T00:29:52.733Z,95.70
2018-05-04T00:32:21.587Z,95.80
2018-05-04T00:34:50.411Z,95.70
2018-05-04T00:37:19.253Z,96.00
2018-05-04T00:39:48.875Z,96.50
2018-05-04T00:42:18.582Z,96.20
2018-05-04T00:44:48.192Z,96.50
2018-05-04T00:47:17.795Z,97.00
2018-05-04T00:49:47.410Z,97.50
2018-05-04T00:52:17.003Z,97.70
2018-05-04T00:54:46.634Z,97.60
2018-05-04T00:57:15.456Z,97.60
2018-05-04T00:59:44.319Z,97.70
2018-05-04T01:02:13.932Z,98.20
2018-05-04T01:04:43.336Z,98.10
2018-05-04T01:07:12.173Z,98.40
2018-05-04T01:09:41.018Z,98.80
2018-05-04T01:12:09.885Z,98.80
2018-05-04T01:14:39.481Z,99.00
2018-05-04T01:17:08.752Z,99.00
2018-05-04T01:19:37.707Z,99.10
2018-05-04T01:22:07.405Z,99.30
2018-05-04T01:24:36.265Z,99.30
2018-05-04T01:27:06.425Z,99.60
2018-05-04T01:29:35.273Z,99.50
2018-05-04T01:32:04.103Z,99.80
2018-05-04T01:34:32.943Z,99.80
2018-05-04T01:37:01.864Z,99.90
2018-05-04T01:39:31.463Z,99.90
2018-05-04T01:42:01.073Z,99.90
2018-05-04T01:44:30.678Z,99.90
2018-05-04T01:47:00.291Z,99.90
2018-05-04T01:49:29.881Z,99.90
2018-05-04T01:51:59.535Z,99.90
2018-05-04T01:54:28.377Z,99.90
2018-05-04T01:56:58.429Z,99.90
2018-05-04T01:59:27.272Z,99.90
2018-05-04T02:01:56.113Z,99.90
2018-05-04T02:04:25.069Z,99.90
2018-05-04T02:06:54.685Z,99.90
2018-05-04T02:09:24.287Z,99.90
2018-05-04T02:11:53.933Z,99.90
2018-05-04T02:14:22.814Z,99.90
2018-05-04T02:16:52.215Z,99.90
2018-05-04T02:19:21.062Z,99.90
2018-05-04T02:21:50.661Z,99.90
2018-05-04T02:24:20.285Z,99.90
2018-05-04T02:26:49.133Z,99.90
2018-05-04T02:29:17.977Z,99.90
2018-05-04T02:31:46.810Z,99.90
2018-05-04T02:34:15.648Z,99.90
2018-05-04T02:36:44.490Z,99.90
2018-05-04T02:39:13.336Z,99.90
2018-05-04T02:41:42.806Z,99.90
2018-05-04T02:44:12.426Z,99.90
2018-05-04T02:46:41.252Z,99.90
2018-05-04T02:49:10.108Z,99.90
2018-05-04T02:51:38.978Z,99.90
2018-05-04T02:54:08.997Z,99.90
2018-05-04T02:56:38.616Z,99.90
2018-05-04T02:59:07.493Z,99.90
2018-05-04T03:01:36.308Z,99.90
2018-05-04T03:04:05.276Z,99.90
2018-05-04T03:06:34.116Z,99.90
2018-05-04T03:09:02.976Z,99.90
2018-05-04T03:11:31.817Z,99.90
2018-05-04T03:14:00.668Z,99.90
2018-05-04T03:16:29.510Z,99.90
2018-05-04T03:18:59.141Z,99.90
2018-05-04T03:21:27.964Z,99.90
2018-05-04T03:23:58.444Z,99.90
2018-05-04T03:26:28.058Z,99.90
2018-05-04T03:28:56.893Z,99.90
2018-05-04T03:31:26.535Z,99.90
2018-05-04T03:33:56.155Z,99.90
2018-05-04T03:36:25.782Z,99.90
2018-05-04T03:38:54.618Z,99.90
2018-05-04T03:41:23.481Z,99.90
2018-05-04T03:43:52.334Z,99.90
2018-05-04T03:46:21.939Z,99.90
2018-05-04T03:48:51.544Z,99.90
2018-05-04T03:51:21.171Z,99.90
2018-05-04T03:53:50.138Z,99.90
2018-05-04T03:56:19.756Z,99.90
2018-05-04T04:02:09.914Z,99.90
2018-05-04T04:04:38.760Z,99.90
2018-05-04T04:07:07.957Z,99.90
2018-05-04T04:09:36.797Z,99.90
2018-05-04T04:12:05.645Z,99.90
2018-05-04T04:14:34.488Z,99.90
2018-05-04T04:17:03.329Z,99.90
2018-05-04T04:19:32.176Z,99.90
2018-05-04T04:22:01.801Z,99.90
2018-05-04T04:24:30.673Z,99.90
2018-05-04T04:27:00.279Z,99.90
2018-05-04T04:29:29.911Z,99.90
2018-05-04T04:31:58.961Z,99.90
2018-05-04T04:34:29.336Z,99.90
2018-05-04T04:36:58.182Z,99.90
2018-05-04T04:39:27.048Z,99.90
2018-05-04T04:41:56.237Z,99.90
2018-05-04T04:44:25.080Z,99.90
2018-05-04T04:46:54.682Z,99.90
2018-05-04T04:49:24.313Z,99.90
2018-05-04T04:51:53.172Z,99.90
2018-05-04T04:54:22.984Z,99.90
2018-05-04T04:56:52.600Z,99.90
2018-05-04T04:59:22.239Z,99.90
2018-05-04T05:01:51.093Z,99.90
2018-05-04T05:04:19.944Z,99.90
2018-05-04T05:06:48.773Z,99.90
2018-05-04T05:09:18.396Z,99.90
2018-05-04T05:11:47.252Z,99.90
2018-05-04T05:14:16.127Z,99.90
2018-05-04T05:16:44.980Z,99.90
2018-05-04T05:19:13.831Z,99.90
2018-05-04T05:21:43.445Z,99.90
2018-05-04T05:24:12.349Z,99.90
2018-05-04T05:26:41.190Z,99.90
2018-05-04T05:29:10.820Z,99.90
2018-05-04T05:31:40.427Z,99.90
2018-05-04T05:34:10.036Z,99.90
2018-05-04T05:36:39.673Z,99.90
2018-05-04T05:39:08.917Z,99.90
2018-05-04T05:41:39.309Z,99.90
2018-05-04T05:44:08.153Z,99.90
2018-05-04T05:46:37.784Z,99.90
2018-05-04T05:49:06.644Z,99.90
2018-05-04T05:51:36.258Z,99.90
2018-05-04T05:54:05.872Z,99.90
2018-05-04T05:56:34.732Z,99.90
2018-05-04T05:59:05.082Z,99.90
2018-05-04T06:01:34.709Z,99.90
2018-05-04T06:04:03.555Z,99.90
2018-05-04T06:06:32.394Z,99.90
2018-05-04T06:09:01.267Z,99.90
2018-05-04T06:11:30.540Z,99.90
2018-05-04T06:14:00.164Z,99.90
2018-05-04T06:16:29.793Z,99.90
2018-05-04T06:18:58.637Z,99.90
2018-05-04T06:21:27.469Z,99.90
2018-05-04T06:23:57.106Z,99.90
2018-05-04T06:26:25.957Z,99.90
2018-05-04T06:28:54.807Z,99.90
2018-05-04T06:31:23.657Z,99.90
2018-05-04T06:33:52.535Z,99.90
2018-05-04T06:36:21.352Z,99.90
2018-05-04T06:38:50.207Z,99.90
2018-05-04T06:41:19.833Z,99.90
2018-05-04T06:43:48.690Z,99.90
2018-05-04T06:46:17.568Z,99.90
2018-05-04T06:48:46.478Z,99.90
2018-05-04T06:51:15.313Z,99.90
2018-05-04T06:53:44.924Z,99.90
2018-05-04T06:56:13.769Z,99.90
2018-05-04T06:58:43.369Z,99.90
2018-05-04T07:01:13.055Z,99.90
2018-05-04T07:03:42.602Z,99.90
2018-05-04T07:06:12.248Z,99.90
2018-05-04T07:08:41.079Z,99.90
2018-05-04T07:11:09.940Z,99.90
2018-05-04T07:13:38.776Z,99.90
2018-05-04T07:16:07.684Z,99.90
2018-05-04T07:18:36.570Z,99.90
2018-05-04T07:21:05.462Z,99.90
2018-05-04T07:23:35.182Z,99.90
2018-05-04T07:26:04.030Z,99.90
2018-05-04T07:28:33.633Z,99.90
2018-05-04T07:31:03.258Z,99.90
2018-05-04T07:33:32.857Z,99.90
2018-05-04T07:36:02.559Z,99.90
2018-05-04T07:38:32.081Z,99.90
2018-05-04T07:41:01.717Z,99.90
2018-05-04T07:43:30.556Z,99.90
2018-05-04T07:45:59.408Z,99.90
2018-05-04T07:48:29.037Z,99.90
2018-05-04T07:50:57.858Z,99.90
2018-05-04T07:53:27.477Z,99.90
2018-05-04T07:55:57.085Z,99.90
2018-05-04T07:58:25.946Z,99.90
2018-05-04T08:00:54.776Z,99.90
2018-05-04T08:03:23.633Z,99.90
2018-05-04T08:05:52.453Z,99.90
2018-05-04T08:08:21.316Z,99.90
2018-05-04T08:10:50.143Z,99.90
2018-05-04T08:13:19.948Z,99.90
2018-05-04T08:15:48.808Z,99.90
2018-05-04T08:18:17.641Z,99.90
2018-05-04T08:20:46.484Z,99.90
2018-05-04T08:23:16.122Z,99.90
2018-05-04T08:25:44.944Z,99.90
2018-05-04T08:28:13.804Z,99.90
2018-05-04T08:30:43.421Z,99.90
2018-05-04T08:33:12.382Z,99.90
2018-05-04T08:35:41.972Z,99.90
2018-05-04T08:38:11.597Z,99.90
2018-05-04T08:40:40.501Z,99.90
2018-05-04T08:43:09.362Z,99.90
2018-05-04T08:45:38.884Z,99.40
2018-05-04T08:48:08.642Z,99.00
2018-05-04T08:50:37.512Z,99.00
2018-05-04T08:53:06.352Z,97.00
2018-05-04T08:55:35.190Z,97.50
2018-05-04T08:58:04.064Z,97.90
2018-05-04T09:00:33.652Z,96.30
2018-05-04T09:03:03.264Z,96.20
2018-05-04T09:05:33.095Z,96.10
2018-05-04T09:08:01.861Z,95.90
2018-05-04T09:10:31.470Z,96.30
2018-05-04T09:13:01.066Z,95.70
2018-05-04T09:15:30.692Z,95.20
2018-05-04T09:18:00.273Z,93.70
2018-05-04T09:20:29.900Z,92.80
2018-05-04T09:22:58.732Z,92.90
2018-05-04T09:25:27.571Z,91.30
2018-05-04T09:27:56.417Z,87.00
2018-05-04T09:30:25.256Z,85.20
2018-05-04T09:32:54.090Z,79.40
2018-05-04T09:35:23.710Z,67.20
2018-05-04T09:37:52.581Z,67.20
2018-05-04T09:40:22.152Z,65.50
2018-05-04T09:42:51.028Z,58.60
2018-05-04T09:45:19.849Z,58.40
2018-05-04T09:47:49.458Z,51.30
2018-05-04T09:50:19.054Z,50.80
2018-05-04T09:52:47.891Z,50.70
2018-05-04T09:55:16.733Z,50.20
2018-05-04T09:57:45.560Z,49.40
2018-05-04T10:00:14.405Z,50.40
2018-05-04T10:02:43.258Z,45.30
2018-05-04T10:05:12.085Z,44.40
2018-05-04T10:07:40.934Z,45.20
2018-05-04T10:10:09.776Z,46.00
2018-05-04T10:12:39.231Z,45.20
2018-05-04T10:15:08.025Z,45.60
2018-05-04T10:17:36.902Z,45.70
2018-05-04T10:20:06.454Z,45.70
2018-05-04T10:22:35.283Z,46.20
2018-05-04T10:25:04.133Z,46.60
2018-05-04T10:27:32.974Z,44.50
2018-05-04T10:30:02.613Z,43.80
2018-05-04T10:32:31.450Z,43.80
2018-05-04T10:35:00.280Z,41.90
2018-05-04T10:37:29.122Z,41.90
2018-05-04T10:39:57.966Z,42.30
2018-05-04T10:42:26.813Z,42.20
2018-05-04T10:44:57.866Z,41.60
2018-05-04T10:47:27.464Z,42.00
2018-05-04T10:49:57.070Z,42.30
2018-05-04T10:52:26.698Z,42.50
2018-05-04T10:54:55.557Z,42.50
2018-05-04T10:57:24.689Z,43.20
2018-05-04T10:59:53.526Z,42.10
2018-05-04T11:02:22.777Z,41.40
2018-05-04T11:04:51.634Z,42.00
2018-05-04T11:07:21.237Z,40.40
2018-05-04T11:09:50.098Z,40.30
2018-05-04T11:12:18.960Z,39.80
2018-05-04T11:14:47.817Z,40.10
2018-05-04T11:17:16.616Z,40.10
2018-05-04T11:19:45.449Z,39.20
2018-05-04T11:22:14.289Z,38.90
2018-05-04T11:24:43.897Z,40.20
2018-05-04T11:27:12.737Z,40.20
2018-05-04T11:29:42.332Z,39.70
2018-05-04T11:32:11.217Z,39.40
2018-05-04T11:34:40.030Z,39.10
2018-05-04T11:37:09.672Z,39.10
2018-05-04T11:39:38.522Z,39.10
2018-05-04T11:42:07.365Z,38.40
2018-05-04T11:44:36.201Z,38.90
2018-05-04T11:47:05.048Z,38.20
2018-05-04T11:49:33.881Z,38.60
2018-05-04T11:52:02.725Z,38.50
2018-05-04T11:54:31.556Z,38.10
2018-05-04T11:57:01.161Z,37.60
2018-05-04T11:59:30.195Z,37.50
2018-05-04T12:01:59.836Z,37.20
2018-05-04T12:04:28.707Z,37.20
2018-05-04T12:06:57.505Z,37.10
2018-05-04T12:09:26.350Z,37.00
2018-05-04T12:11:55.952Z,39.20
2018-05-04T12:14:25.561Z,40.50
2018-05-04T12:16:55.161Z,40.40
2018-05-04T12:19:24.328Z,40.40
2018-05-04T12:21:53.196Z,42.10
2018-05-04T12:24:22.042Z,43.30
2018-05-04T12:26:50.897Z,44.50
2018-05-04T12:29:19.757Z,45.70
2018-05-04T12:31:49.165Z,46.90
2018-05-04T12:34:17.979Z,46.00
2018-05-04T12:36:46.813Z,45.70
2018-05-04T12:39:15.671Z,46.50
2018-05-04T12:41:45.304Z,46.80
2018-05-04T12:44:14.148Z,46.70
2018-05-04T12:46:42.982Z,47.00
2018-05-04T12:49:11.819Z,46.90
2018-05-04T12:51:40.658Z,47.10
2018-05-04T12:54:09.526Z,48.20
2018-05-04T12:56:39.131Z,50.00
2018-05-04T12:59:08.313Z,50.00
2018-05-04T13:01:37.168Z,48.60
2018-05-04T13:04:06.036Z,49.50
2018-05-04T13:06:35.640Z,48.00
2018-05-04T13:09:04.485Z,47.90
2018-05-04T13:11:33.333Z,49.10
2018-05-04T13:14:02.385Z,48.60
2018-05-04T13:16:31.225Z,49.80
2018-05-04T13:19:00.113Z,48.30
2018-05-04T13:21:28.953Z,47.80
2018-05-04T13:23:57.795Z,48.60
2018-05-04T13:26:26.647Z,48.50
2018-05-04T13:28:55.477Z,48.60
2018-05-04T13:31:25.089Z,49.10
2018-05-04T13:33:54.188Z,49.00
2018-05-04T13:36:23.804Z,48.30
2018-05-04T13:38:53.570Z,48.20
2018-05-04T13:41:22.417Z,48.40
2018-05-04T13:43:51.257Z,48.50
2018-05-04T13:46:20.090Z,49.00
2018-05-04T13:48:48.965Z,48.80
2018-05-04T13:51:18.621Z,48.50
2018-05-04T13:53:48.175Z,48.30
2018-05-04T13:56:17.761Z,49.70
2018-05-04T13:58:46.607Z,49.70
2018-05-04T14:01:15.520Z,49.10
2018-05-04T14:03:44.353Z,50.00
2018-05-04T14:06:13.105Z,50.10
2018-05-04T14:08:42.685Z,49.40
2018-05-04T14:11:11.505Z,49.20
2018-05-04T14:13:41.651Z,49.10
2018-05-04T14:16:11.236Z,48.80
2018-05-04T14:18:40.142Z,48.80
2018-05-04T14:21:09.732Z,49.40
2018-05-04T14:23:38.602Z,49.40
2018-05-04T14:26:07.444Z,49.20
2018-05-04T14:28:36.318Z,49.10
2018-05-04T14:31:05.146Z,49.40
2018-05-04T14:33:34.000Z,49.30
2018-05-04T14:36:02.840Z,48.90
2018-05-04T14:38:31.684Z,50.10
2018-05-04T14:41:00.532Z,49.90
2018-05-04T14:43:30.164Z,49.60
2018-05-04T14:45:58.984Z,49.50
2018-05-04T14:48:27.915Z,50.00
2018-05-04T14:50:57.546Z,49.50
2018-05-04T14:53:27.152Z,49.50
2018-05-04T14:55:56.024Z,49.40
2018-05-04T14:58:25.632Z,49.00
2018-05-04T15:00:54.541Z,48.90
2018-05-04T15:03:24.099Z,49.00
2018-05-04T15:05:52.943Z,49.20
2018-05-04T15:08:21.776Z,49.60
2018-05-04T15:10:50.621Z,49.30
2018-05-04T15:13:19.461Z,49.80
2018-05-04T15:15:48.322Z,49.20
2018-05-04T15:18:17.149Z,50.10
2018-05-04T15:20:45.981Z,49.50
2018-05-04T15:23:14.826Z,49.90
2018-05-04T15:25:43.715Z,50.20
2018-05-04T15:28:12.546Z,50.40
2018-05-04T15:30:41.418Z,50.30
2018-05-04T15:33:16.097Z,50.40
2018-05-04T15:35:44.952Z,51.40
2018-05-04T15:38:15.320Z,50.90
2018-05-04T15:40:44.161Z,50.90
2018-05-04T15:43:13.019Z,51.30
2018-05-04T15:45:41.865Z,51.10
2018-05-04T15:48:17.188Z,50.70
2018-05-04T15:50:52.569Z,52.40
2018-05-04T15:53:21.420Z,52.40
2018-05-04T15:55:50.247Z,52.30
2018-05-04T15:58:19.085Z,51.90
2018-05-04T16:00:48.557Z,52.40
2018-05-04T16:03:17.426Z,52.70
2018-05-04T16:05:46.271Z,53.10
2018-05-04T16:08:15.112Z,53.20
2018-05-04T16:10:43.945Z,52.60
2018-05-04T16:13:14.310Z,52.50
2018-05-04T16:15:43.160Z,52.50
2018-05-04T16:18:12.066Z,53.10
2018-05-04T16:20:41.661Z,53.40
2018-05-04T16:23:10.508Z,53.30
2018-05-04T16:25:39.336Z,53.30
2018-05-04T16:28:08.229Z,53.30
2018-05-04T16:30:37.158Z,53.50
2018-05-04T16:33:06.723Z,53.00
2018-05-04T16:35:35.560Z,53.00
2018-05-04T16:38:04.420Z,53.30
2018-05-04T16:40:33.249Z,53.60
2018-05-04T16:43:02.096Z,53.40
2018-05-04T16:45:30.916Z,53.70
2018-05-04T16:48:05.568Z,53.70
2018-05-04T16:50:35.230Z,53.90
2018-05-04T16:53:04.005Z,53.50
2018-05-04T16:55:32.905Z,53.50
2018-05-04T16:58:01.748Z,53.80
2018-05-04T17:00:31.359Z,53.60
2018-05-04T17:03:00.184Z,53.60
2018-05-04T17:05:29.038Z,53.70
2018-05-04T17:07:57.885Z,53.40
2018-05-04T17:10:26.733Z,53.60
2018-05-04T17:12:55.595Z,53.30
2018-05-04T17:15:25.205Z,54.30
2018-05-04T17:17:54.804Z,53.90
2018-05-04T17:20:24.420Z,54.20
2018-05-04T17:22:54.023Z,54.70
2018-05-04T17:25:23.661Z,54.80
2018-05-04T17:27:52.501Z,54.80
2018-05-04T17:30:21.357Z,54.80
2018-05-04T17:32:50.189Z,54.90
2018-05-04T17:35:19.802Z,55.60
2018-05-04T17:37:49.418Z,55.60
2018-05-04T17:40:19.103Z,55.40
2018-05-04T17:42:48.645Z,55.60
2018-05-04T17:45:18.273Z,55.80
2018-05-04T17:47:47.116Z,55.70
2018-05-04T17:50:15.948Z,55.70
2018-05-04T17:52:44.783Z,56.40
2018-05-04T17:55:13.652Z,56.30
2018-05-04T17:57:42.517Z,55.90
2018-05-04T18:00:11.334Z,56.20
2018-05-04T18:02:41.059Z,56.70
2018-05-04T18:05:12.903Z,56.10
2018-05-04T18:07:41.789Z,55.60
2018-05-04T18:10:10.641Z,55.70
2018-05-04T18:12:40.257Z,56.10
2018-05-04T18:15:09.092Z,56.10
2018-05-04T18:17:37.963Z,56.20
2018-05-04T18:20:06.793Z,56.40
2018-05-04T18:22:36.826Z,56.20
2018-05-04T18:25:06.456Z,56.40
2018-05-04T18:27:35.314Z,56.40
2018-05-04T18:30:04.183Z,56.60
2018-05-04T18:32:32.997Z,56.80
2018-05-04T18:35:02.624Z,57.50
2018-05-04T18:37:32.221Z,57.30
2018-05-04T18:40:01.853Z,57.80
2018-05-04T18:42:30.712Z,57.80
2018-05-04T18:44:59.649Z,57.40
2018-05-04T18:47:28.455Z,57.60
2018-05-04T18:49:57.309Z,57.40
2018-05-04T18:52:26.160Z,57.70
2018-05-04T18:54:55.811Z,58.50
2018-05-04T18:57:25.921Z,57.90
2018-05-04T18:59:54.867Z,57.30
2018-05-04T19:02:29.312Z,57.60
2018-05-04T19:04:58.944Z,57.40
2018-05-04T19:07:27.793Z,57.40
2018-05-04T19:09:56.639Z,57.60
2018-05-04T19:12:25.513Z,57.70
2018-05-04T19:14:55.130Z,58.00
2018-05-04T19:17:23.974Z,57.90
2018-05-04T19:19:52.802Z,57.60
2018-05-04T19:22:22.421Z,58.00
2018-05-04T19:24:51.277Z,58.00
2018-05-04T19:27:20.913Z,58.00
2018-05-04T19:29:49.754Z,58.00
2018-05-04T19:32:18.619Z,57.90
2018-05-04T19:34:48.293Z,58.10
2018-05-04T19:37:17.842Z,58.40
2018-05-04T19:39:47.013Z,58.00
2018-05-04T19:42:15.861Z,58.40
2018-05-04T19:44:44.714Z,58.30
2018-05-04T19:47:14.363Z,58.70
2018-05-04T19:49:43.230Z,58.60
2018-05-04T19:52:12.828Z,58.90
2018-05-04T19:54:41.700Z,58.80
2018-05-04T19:57:11.349Z,59.70
2018-05-04T19:59:40.209Z,59.10
2018-05-04T20:02:09.813Z,59.20
2018-05-04T20:04:39.441Z,59.40
2018-05-04T20:07:08.331Z,59.40
2018-05-04T20:09:37.134Z,59.50
2018-05-04T20:12:05.979Z,59.50
2018-05-04T20:14:34.842Z,59.60
2018-05-04T20:17:03.679Z,59.80
2018-05-04T20:19:33.303Z,60.20
2018-05-04T20:22:02.400Z,60.10
2018-05-04T20:24:32.017Z,60.60
2018-05-04T20:27:00.993Z,60.60
2018-05-04T20:29:30.598Z,60.80
2018-05-04T20:31:59.442Z,60.70
2018-05-04T20:34:28.327Z,61.30
2018-05-04T20:36:57.917Z,62.30
2018-05-04T20:39:27.573Z,62.20
2018-05-04T20:41:56.430Z,62.10
2018-05-04T20:44:26.999Z,62.50
2018-05-04T20:46:55.847Z,62.50
2018-05-04T20:49:25.501Z,62.70
2018-05-04T20:51:54.403Z,62.70
2018-05-04T20:54:23.221Z,62.70
2018-05-04T20:56:52.852Z,64.50
2018-05-04T20:59:22.469Z,64.20
2018-05-04T21:01:51.316Z,64.20
2018-05-04T21:04:20.962Z,65.30
2018-05-04T21:06:50.584Z,66.30
2018-05-04T21:09:19.416Z,66.20
2018-05-04T21:11:48.278Z,67.20
2018-05-04T21:14:17.130Z,67.40
2018-05-04T21:16:45.994Z,67.90
2018-05-04T21:19:14.825Z,67.90
2018-05-04T21:21:43.685Z,68.60
2018-05-04T21:24:13.301Z,69.10
2018-05-04T21:26:42.204Z,69.10
2018-05-04T21:29:11.070Z,69.20
2018-05-04T21:31:40.711Z,69.50
2018-05-04T21:34:09.547Z,69.40
2018-05-04T21:36:39.201Z,70.00
2018-05-04T21:39:08.069Z,69.90
2018-05-04T21:41:36.905Z,70.20
2018-05-04T21:44:05.749Z,71.50
2018-05-04T21:46:34.594Z,71.10
2018-05-04T21:49:05.146Z,72.40
2018-05-04T21:51:33.993Z,72.30
2018-05-04T21:54:02.832Z,72.60
2018-05-04T21:56:31.701Z,72.90
2018-05-04T21:59:01.323Z,73.20
2018-05-04T22:01:30.304Z,73.20
2018-05-04T22:03:59.935Z,73.50
2018-05-04T22:06:29.328Z,73.50
2018-05-04T22:08:58.181Z,73.80
2018-05-04T22:11:27.037Z,74.50
2018-05-04T22:13:55.896Z,75.10
2018-05-04T22:16:25.509Z,75.10
2018-05-04T22:18:54.365Z,75.00
2018-05-04T22:21:23.205Z,75.30
2018-05-04T22:23:52.083Z,75.70
2018-05-04T22:26:20.948Z,75.90
2018-05-04T22:28:50.565Z,77.50
2018-05-04T22:31:19.428Z,77.40
2018-05-04T22:33:49.099Z,78.50
2018-05-04T22:36:17.948Z,78.40
2018-05-04T22:38:46.790Z,78.80
2018-05-04T22:41:15.635Z,78.80
2018-05-04T22:43:44.473Z,78.90
2018-05-04T22:46:13.377Z,79.50
2018-05-04T22:48:42.993Z,80.30
2018-05-04T22:51:12.157Z,80.10
2018-05-04T22:53:41.005Z,80.30
2018-05-04T22:56:09.904Z,80.30
2018-05-04T22:58:38.758Z,80.40
2018-05-04T23:01:07.650Z,80.80
2018-05-04T23:03:36.495Z,80.90
2018-05-04T23:06:05.353Z,81.10
2018-05-04T23:08:34.200Z,81.30
2018-05-04T23:11:03.822Z,82.10
2018-05-04T23:13:32.684Z,82.10
2018-05-04T23:16:01.548Z,82.50
2018-05-04T23:18:30.401Z,84.20
2018-05-04T23:20:59.284Z,84.50
2018-05-04T23:23:28.107Z,84.90
2018-05-04T23:25:56.952Z,84.90
2018-05-04T23:28:26.582Z,85.60
2018-05-04T23:30:56.196Z,85.90
2018-05-04T23:33:25.073Z,85.70
2018-05-04T23:35:54.677Z,86.60
2018-05-04T23:38:23.541Z,86.40
2018-05-04T23:40:52.373Z,86.90
2018-05-04T23:43:21.223Z,87.00
2018-05-04T23:45:50.066Z,88.30
2018-05-04T23:48:18.913Z,87.70
2018-05-04T23:50:47.756Z,87.70
2018-05-04T23:53:16.934Z,88.90
2018-05-04T23:55:45.791Z,88.20
2018-05-04T23:58:14.638Z,88.50
